This demonstration page uses our WeatherBlox Daily Observations layout. Learn more.

36.17497, -115.13722

Hourly Observations for August 18, 2019

Temp ( °F °C ) Dew Point ( °F °C ) Humidity (%) Winds ( mph kmh ) Pressure ( in mb ) Visibility ( mi km ) Precip ( " mm )
12:53 am 00:53 Clear 85 29.4 21 -6.1 9 9 Calm 29.71 1006 10 16.09344 0 0
1:53 am 01:53 Clear 85 29.4 22 -5.6 10 10 ESE 3 6 29.71 1006 10 16.09344 0 0
2:53 am 02:53 Clear 80 26.7 27 -2.8 14 14 WNW 6 9 29.74 1007 10 16.09344 0 0
3:53 am 03:53 Clear 77 25 28 -2.2 16 16 Calm 29.74 1007 10 16.09344 0 0
4:53 am 04:53 Clear 76 24.4 29 -1.7 18 18 WNW 5 7 29.74 1007 10 16.09344 0 0
5:53 am 05:53 Clear 74 23.3 27 -2.8 17 17 NW 7 11 29.77 1008 10 16.09344 0 0
6:53 am 06:53 Sunny 77 25 30 -1.1 18 18 NNW 5 7 29.8 1009 10 16.09344 0 0
7:53 am 07:53 Sunny 82 27.8 33 0.6 17 17 Calm 29.8 1009 10 16.09344 0 0
8:53 am 08:53 Sunny 86 30 29 -1.7 13 13 ESE 6 9 29.83 1010 10 16.09344 0 0
9:53 am 09:53 Sunny 89 31.7 30 -1.1 12 12 SE 6 9 29.83 1010 10 16.09344 0 0
10:53 am 10:53 Sunny 93 33.9 29 -1.7 10 10 S 5 7 29.83 1010 10 16.09344 0 0
11:53 am 11:53 Sunny 95 35 28 -2.2 9 9 VRB 5 7 29.83 1010 10 16.09344 0 0
12:53 pm 12:53 Sunny 98 36.7 31 -0.6 9 9 SE 9 15 29.8 1009 10 16.09344 0 0
1:53 pm 13:53 Sunny 98 36.7 30 -1.1 9 9 SSE 9 15 29.8 1009 10 16.09344 0 0
2:53 pm 14:53 Sunny 100 37.8 29 -1.7 8 8 S 9 15 29.77 1008 10 16.09344 0 0
3:53 pm 15:53 Sunny 104 40 22 -5.6 5 5 SW 16 26 29.74 1007 10 16.09344 0 0
4:53 pm 16:53 Sunny 102 38.9 18 -7.8 5 5 SSW 16 26 29.74 1007 10 16.09344 0 0
5:53 pm 17:53 Sunny 101 38.3 21 -6.1 6 6 SSW 15 24 29.74 1007 10 16.09344 0 0
6:53 pm 18:53 Sunny 98 36.7 22 -5.6 6 6 W 17 28 29.74 1007 10 16.09344 0 0
7:53 pm 19:53 Clear 95 35 21 -6.1 7 7 W 13 20 29.74 1007 10 16.09344 0 0
8:53 pm 20:53 Clear 93 33.9 18 -7.8 6 6 WSW 5 7 29.77 1008 10 16.09344 0 0
9:53 pm 21:53 Clear 89 31.7 22 -5.6 8 8 S 5 7 29.8 1009 10 16.09344 0 0
10:53 pm 22:53 Clear 88 31.1 23 -5 9 9 SW 7 11 29.8 1009 10 16.09344 0 0
11:53 pm 23:53 Clear 86 30 24 -4.4 10 10 WSW 6 9 29.8 1009 10 16.09344 0 0

Powered by AerisWeather